Terminal Aerodrome Forecast
Issued by NWS

Home | Current Version | Previous Version | Text Only | Print | Product List | Glossary On
Versions: 1 2 3 4 5 6 7 8 9 10 11 12 13 14
000
FTUS45 KSLC 260532
TAFEVW
TAF
KEVW 260532Z 2606/2706 22012KT P6SM SCT080 BKN200
     FM261000 26007KT P6SM VCSH SCT040 BKN070
     FM261800 26016G25KT P6SM VCSH SCT025 BKN050
     FM270200 28012KT P6SM VCSH SCT025 BKN050=

USA.gov is the U.S. government's official web portal to all federal, state and local government web resources and services.